Terminal Aerodrome Forecast
Issued by NWS Louisville, KY

Home | Current Version | Previous Version | Text Only | Print | Product List | Glossary On
Versions: 1 2 3 4 5 6 7 8 9 10 11 12
000
FTUS43 KLMK 062300
TAFLEX
TAF
KLEX 062328Z 0700/0724 19006KT P6SM FEW035 SCT250
     FM070700 20007KT 5SM BR SCT250
     FM071330 20011KT P6SM VCSH SCT035 SCT200
     FM071900 21013G20KT 6SM -SHRA VCTS BKN040CB BKN200=

USA.gov is the U.S. government's official web portal to all federal, state and local government web resources and services.